createdAt,value
2023-02-19T00:01:54.821Z,21.10
2023-02-19T00:04:23.841Z,20.60
2023-02-19T00:06:52.187Z,17.60
2023-02-19T00:09:21.651Z,21.50
2023-02-19T00:11:50.479Z,20.00
2023-02-19T00:14:21.453Z,21.30
2023-02-19T00:16:50.219Z,20.80
2023-02-19T00:19:20.727Z,19.30
2023-02-19T00:21:52.713Z,19.60
2023-02-19T00:24:21.820Z,20.50
2023-02-19T00:26:49.989Z,22.00
2023-02-19T00:29:21.646Z,19.40
2023-02-19T00:31:49.997Z,18.30
2023-02-19T00:34:18.353Z,20.60
2023-02-19T00:36:46.568Z,18.70
2023-02-19T00:39:18.531Z,19.50
2023-02-19T00:41:47.831Z,18.40
2023-02-19T00:44:16.261Z,18.00
2023-02-19T00:46:47.564Z,20.30
2023-02-19T00:49:22.629Z,19.60
2023-02-19T00:51:52.578Z,21.00
2023-02-19T00:54:22.788Z,18.60
2023-02-19T00:56:51.549Z,20.10
2023-02-19T00:59:20.052Z,18.00
2023-02-19T01:01:49.914Z,19.20
2023-02-19T01:04:19.165Z,15.60
2023-02-19T01:06:48.976Z,18.50
2023-02-19T01:09:17.373Z,17.00
2023-02-19T01:11:45.800Z,22.50
2023-02-19T01:14:13.953Z,20.30
2023-02-19T01:16:42.152Z,19.10
2023-02-19T01:19:10.353Z,21.00
2023-02-19T01:21:39.953Z,15.90
2023-02-19T01:24:11.050Z,17.70
2023-02-19T01:26:39.204Z,16.90
2023-02-19T01:29:07.307Z,17.20
2023-02-19T01:31:36.829Z,17.30
2023-02-19T01:34:05.067Z,18.10
2023-02-19T01:36:34.374Z,16.90
2023-02-19T01:39:05.297Z,15.90
2023-02-19T01:41:36.731Z,15.90
2023-02-19T01:44:11.388Z,16.70
2023-02-19T01:46:41.824Z,17.70
2023-02-19T01:49:15.640Z,17.00
2023-02-19T01:51:50.583Z,15.00
2023-02-19T01:54:22.756Z,17.30
2023-02-19T01:56:51.584Z,16.70
2023-02-19T01:59:20.294Z,15.90
2023-02-19T02:01:49.386Z,16.80
2023-02-19T02:04:19.015Z,19.40
2023-02-19T02:06:56.517Z,17.10
2023-02-19T02:09:47.303Z,15.60
2023-02-19T02:12:16.099Z,18.00
2023-02-19T02:14:47.814Z,15.60
2023-02-19T02:17:27.081Z,14.90
2023-02-19T02:20:14.110Z,14.50
2023-02-19T02:22:49.752Z,15.30
2023-02-19T02:25:41.157Z,16.30
2023-02-19T02:28:26.597Z,17.30
2023-02-19T02:30:58.369Z,14.30
2023-02-19T02:33:33.353Z,16.20
2023-02-19T02:36:14.332Z,15.00
2023-02-19T02:38:45.349Z,14.50
2023-02-19T02:41:15.634Z,13.30
2023-02-19T02:43:43.885Z,13.90
2023-02-19T02:46:19.081Z,14.10
2023-02-19T02:48:57.917Z,13.20
2023-02-19T02:51:30.772Z,12.10
2023-02-19T02:54:34.845Z,14.40
2023-02-19T02:57:09.749Z,17.70
2023-02-19T02:59:43.192Z,15.40
2023-02-19T03:02:22.907Z,14.40
2023-02-19T03:05:28.005Z,14.00
2023-02-19T03:08:12.592Z,18.90
2023-02-19T03:10:46.867Z,14.40
2023-02-19T03:16:35.918Z,13.40
2023-02-19T03:19:20.788Z,11.70
2023-02-19T03:22:00.784Z,13.40
2023-02-19T03:25:00.133Z,16.30
2023-02-19T03:27:32.202Z,15.30
2023-02-19T03:30:05.683Z,15.80
2023-02-19T03:32:40.849Z,16.30
2023-02-19T03:35:21.094Z,13.20
2023-02-19T03:38:01.843Z,13.00
2023-02-19T03:40:34.711Z,14.80
2023-02-19T03:43:21.638Z,14.30
2023-02-19T03:46:25.652Z,15.30
2023-02-19T03:49:23.826Z,15.50
2023-02-19T03:52:10.850Z,14.90
2023-02-19T03:55:02.829Z,18.40
2023-02-19T03:57:39.136Z,15.50
2023-02-19T04:00:25.031Z,14.30
2023-02-19T04:02:59.268Z,15.30
2023-02-19T04:08:05.113Z,14.00
2023-02-19T04:10:38.580Z,15.00
2023-02-19T04:13:15.360Z,13.10
2023-02-19T04:15:46.236Z,14.60
2023-02-19T04:18:25.855Z,13.20
2023-02-19T04:20:54.372Z,13.90
2023-02-19T04:23:27.229Z,11.20
2023-02-19T04:25:59.217Z,12.70
2023-02-19T04:28:29.410Z,12.00
2023-02-19T04:30:57.628Z,14.30
2023-02-19T04:33:25.828Z,13.10
2023-02-19T04:35:53.937Z,13.10
2023-02-19T04:38:21.975Z,12.70
2023-02-19T04:40:51.624Z,13.60
2023-02-19T04:43:20.635Z,14.10
2023-02-19T04:45:48.803Z,12.10
2023-02-19T04:48:17.126Z,12.90
2023-02-19T04:50:45.233Z,12.00
2023-02-19T04:53:13.461Z,13.60
2023-02-19T04:55:41.599Z,11.60
2023-02-19T04:58:09.701Z,13.50
2023-02-19T05:00:37.788Z,11.60
2023-02-19T05:03:05.881Z,12.60
2023-02-19T05:05:35.566Z,13.50
2023-02-19T05:08:03.803Z,13.30
2023-02-19T05:10:33.808Z,13.00
2023-02-19T05:13:02.070Z,12.10
2023-02-19T05:15:30.318Z,13.80
2023-02-19T05:17:58.671Z,12.40
2023-02-19T05:20:26.889Z,14.10
2023-02-19T05:22:55.189Z,13.50
2023-02-19T05:25:23.325Z,15.90
2023-02-19T05:28:11.433Z,13.80
2023-02-19T05:30:39.591Z,15.90
2023-02-19T05:33:07.928Z,13.10
2023-02-19T05:35:41.847Z,16.00
2023-02-19T05:38:11.028Z,14.90
2023-02-19T05:40:39.712Z,14.00
2023-02-19T05:43:08.402Z,17.10
2023-02-19T05:45:36.909Z,16.10
2023-02-19T05:48:06.599Z,26.90
2023-02-19T05:50:39.453Z,28.30
2023-02-19T05:53:13.797Z,39.60
2023-02-19T05:55:41.971Z,55.10
2023-02-19T05:58:10.198Z,53.30
2023-02-19T06:00:38.420Z,34.80
2023-02-19T06:03:06.596Z,42.20
2023-02-19T06:05:34.673Z,64.70
2023-02-19T06:08:02.849Z,58.30
2023-02-19T06:10:30.979Z,50.30
2023-02-19T06:12:59.444Z,54.90
2023-02-19T06:15:27.592Z,59.40
2023-02-19T06:17:55.842Z,58.30
2023-02-19T06:20:25.457Z,56.50
2023-02-19T06:22:54.842Z,47.50
2023-02-19T06:25:22.989Z,37.50
2023-02-19T06:27:51.278Z,32.40
2023-02-19T06:30:19.634Z,55.10
2023-02-19T06:32:47.799Z,37.60
2023-02-19T06:35:16.014Z,48.20
2023-02-19T06:37:46.896Z,33.90
2023-02-19T06:40:15.753Z,22.10
2023-02-19T06:42:43.935Z,14.10
2023-02-19T06:45:12.143Z,12.60
2023-02-19T06:47:40.411Z,13.20
2023-02-19T06:50:08.619Z,10.70
2023-02-19T06:52:36.814Z,11.50
2023-02-19T06:55:05.202Z,11.60
2023-02-19T06:57:33.204Z,13.30
2023-02-19T07:00:01.416Z,12.60
2023-02-19T07:02:29.521Z,11.20
2023-02-19T07:04:57.668Z,14.80
2023-02-19T07:07:25.740Z,15.10
2023-02-19T07:09:53.955Z,11.70
2023-02-19T07:12:22.120Z,10.10
2023-02-19T07:14:50.365Z,11.10
2023-02-19T07:17:18.660Z,10.80
2023-02-19T07:19:46.854Z,10.30
2023-02-19T07:22:15.107Z,11.00
2023-02-19T07:24:43.315Z,9.70
2023-02-19T07:27:11.512Z,11.10
2023-02-19T07:29:39.657Z,10.00
2023-02-19T07:32:07.979Z,13.30
2023-02-19T07:34:36.600Z,12.30
2023-02-19T07:37:04.805Z,14.40
2023-02-19T07:39:32.965Z,12.80
2023-02-19T07:42:01.176Z,11.90
2023-02-19T07:44:29.369Z,10.10
2023-02-19T07:46:57.449Z,9.30
2023-02-19T07:49:25.613Z,10.00
2023-02-19T07:51:53.851Z,10.20
2023-02-19T07:54:22.181Z,8.60
2023-02-19T07:56:50.537Z,11.50
2023-02-19T07:59:21.673Z,11.60
2023-02-19T08:02:08.625Z,11.60
2023-02-19T08:04:36.742Z,12.10
2023-02-19T08:07:05.543Z,10.30
2023-02-19T08:09:33.812Z,9.30
2023-02-19T08:12:20.544Z,10.90
2023-02-19T08:14:48.856Z,9.90
2023-02-19T08:17:17.016Z,9.10
2023-02-19T08:19:45.266Z,9.70
2023-02-19T08:22:16.376Z,7.40
2023-02-19T08:24:45.214Z,8.70
2023-02-19T08:27:13.486Z,6.80
2023-02-19T08:29:41.972Z,7.50
2023-02-19T08:32:10.412Z,7.10
2023-02-19T08:34:38.520Z,6.80
2023-02-19T08:37:06.579Z,7.70
2023-02-19T08:39:34.799Z,10.80
2023-02-19T08:42:03.054Z,11.40
2023-02-19T08:44:32.919Z,9.50
2023-02-19T08:47:02.579Z,10.00
2023-02-19T08:49:30.964Z,9.80
2023-02-19T08:51:59.284Z,12.60
2023-02-19T08:54:27.364Z,10.00
2023-02-19T08:56:55.532Z,7.30
2023-02-19T08:59:23.925Z,9.40
2023-02-19T09:01:53.140Z,9.00
2023-02-19T09:04:21.246Z,8.20
2023-02-19T09:06:49.458Z,7.10
2023-02-19T09:09:17.797Z,7.10
2023-02-19T09:11:47.413Z,6.70
2023-02-19T09:14:17.202Z,11.50
2023-02-19T09:16:45.430Z,8.10
2023-02-19T09:19:13.664Z,6.90
2023-02-19T09:21:43.492Z,7.40
2023-02-19T09:24:11.736Z,10.50
2023-02-19T09:26:39.838Z,6.80
2023-02-19T09:29:08.060Z,7.10
2023-02-19T09:31:36.406Z,5.60
2023-02-19T09:34:06.162Z,6.30
2023-02-19T09:36:34.687Z,6.30
2023-02-19T09:39:04.645Z,7.70
2023-02-19T09:41:36.152Z,5.20
2023-02-19T09:44:07.638Z,7.20
2023-02-19T09:46:50.066Z,4.60
2023-02-19T09:49:27.135Z,7.20
2023-02-19T09:52:20.342Z,5.20
2023-02-19T09:54:48.795Z,6.90
2023-02-19T09:57:20.657Z,5.80
2023-02-19T09:59:57.288Z,9.60
2023-02-19T10:02:27.588Z,5.60
2023-02-19T10:04:56.037Z,7.80
2023-02-19T10:07:43.930Z,8.30
2023-02-19T10:10:15.135Z,6.40
2023-02-19T10:12:50.598Z,11.90
2023-02-19T10:15:46.968Z,5.20
2023-02-19T10:18:24.818Z,9.30
2023-02-19T10:20:53.446Z,8.30
2023-02-19T10:23:22.477Z,7.20
2023-02-19T10:25:59.701Z,7.60
2023-02-19T10:28:30.828Z,6.20
2023-02-19T10:31:01.717Z,6.00
2023-02-19T10:33:29.988Z,10.70
2023-02-19T10:36:01.938Z,7.60
2023-02-19T10:38:48.730Z,7.60
2023-02-19T10:41:23.242Z,6.40
2023-02-19T10:43:57.843Z,10.00
2023-02-19T10:46:32.985Z,6.10
2023-02-19T10:49:05.472Z,4.50
2023-02-19T10:51:42.561Z,7.70
2023-02-19T10:54:26.828Z,7.40
2023-02-19T10:56:55.143Z,7.00
2023-02-19T10:59:26.130Z,6.10
2023-02-19T11:01:59.577Z,6.80
2023-02-19T11:04:34.118Z,5.80
2023-02-19T11:07:18.140Z,5.80
2023-02-19T11:09:52.953Z,7.50
2023-02-19T11:12:27.546Z,6.70
2023-02-19T11:14:56.573Z,6.10
2023-02-19T11:17:28.416Z,4.70
2023-02-19T11:20:00.582Z,7.00
2023-02-19T11:22:40.663Z,4.60
2023-02-19T11:25:15.246Z,7.50
2023-02-19T11:27:55.563Z,4.90
2023-02-19T11:30:45.817Z,5.70
2023-02-19T11:33:17.203Z,6.70
2023-02-19T11:35:47.380Z,4.60
2023-02-19T11:38:18.416Z,6.10
2023-02-19T11:41:30.595Z,4.00
2023-02-19T11:44:07.916Z,4.70
2023-02-19T11:46:54.883Z,5.70
2023-02-19T11:49:29.082Z,6.30
2023-02-19T11:52:23.871Z,6.20
2023-02-19T11:54:58.468Z,7.00
2023-02-19T11:57:51.288Z,7.80
2023-02-19T12:00:31.478Z,6.00
2023-02-19T12:03:02.404Z,6.70
2023-02-19T12:05:59.985Z,6.00
2023-02-19T12:08:46.720Z,5.50
2023-02-19T12:11:20.946Z,8.40
2023-02-19T12:14:04.296Z,5.20
2023-02-19T12:16:52.476Z,5.40
2023-02-19T12:19:39.609Z,5.50
2023-02-19T12:22:25.964Z,5.20
2023-02-19T12:25:11.643Z,5.30
2023-02-19T12:28:18.032Z,6.30
2023-02-19T12:30:52.197Z,6.50
2023-02-19T12:36:19.316Z,5.10
2023-02-19T12:39:07.798Z,6.90
2023-02-19T12:41:53.428Z,7.10
2023-02-19T12:44:36.135Z,6.90
2023-02-19T12:47:06.817Z,6.10
2023-02-19T12:49:44.095Z,6.70
2023-02-19T12:52:25.948Z,6.60
2023-02-19T12:54:58.208Z,8.50
2023-02-19T12:57:31.865Z,5.70
2023-02-19T13:00:07.529Z,7.90
2023-02-19T13:02:44.543Z,4.80
2023-02-19T13:05:39.206Z,6.00
2023-02-19T13:08:25.670Z,6.00
2023-02-19T13:11:05.573Z,4.70
2023-02-19T13:13:42.136Z,3.80
2023-02-19T13:16:18.443Z,10.80
2023-02-19T13:18:49.114Z,6.00
2023-02-19T13:21:39.266Z,6.00
2023-02-19T13:24:16.982Z,6.00
2023-02-19T13:26:58.632Z,7.30
2023-02-19T13:29:51.342Z,7.10
2023-02-19T13:32:58.692Z,6.30
2023-02-19T13:35:26.782Z,7.30
2023-02-19T13:38:00.121Z,7.50
2023-02-19T13:40:32.775Z,9.20
2023-02-19T13:43:05.471Z,8.50
2023-02-19T13:45:39.610Z,7.40
2023-02-19T13:48:31.576Z,6.70
2023-02-19T13:51:21.766Z,7.90
2023-02-19T13:53:56.877Z,6.90
2023-02-19T13:56:34.392Z,6.90
2023-02-19T13:59:21.905Z,8.00
2023-02-19T14:01:52.563Z,5.50
2023-02-19T14:04:22.386Z,6.50
2023-02-19T14:07:05.843Z,6.90
2023-02-19T14:09:45.869Z,7.70
2023-02-19T14:12:15.899Z,8.10
2023-02-19T14:14:54.882Z,6.90
2023-02-19T14:17:26.071Z,7.50
2023-02-19T14:19:54.233Z,9.10
2023-02-19T14:22:47.725Z,7.40
2023-02-19T14:25:31.429Z,7.80
2023-02-19T14:28:15.333Z,8.00
2023-02-19T14:30:59.296Z,9.00
2023-02-19T14:33:31.401Z,8.40
2023-02-19T14:36:39.901Z,8.70
2023-02-19T14:39:27.757Z,7.20
2023-02-19T14:42:01.760Z,7.40
2023-02-19T14:44:45.218Z,7.00
2023-02-19T14:47:23.180Z,6.00
2023-02-19T14:49:58.536Z,6.20
2023-02-19T14:52:40.350Z,7.70
2023-02-19T14:55:14.943Z,7.10
2023-02-19T14:57:46.138Z,8.60
2023-02-19T15:00:28.302Z,8.10
2023-02-19T15:02:59.671Z,7.40
2023-02-19T15:05:31.072Z,6.70
2023-02-19T15:08:03.423Z,11.70
2023-02-19T15:10:33.157Z,7.60
2023-02-19T15:13:05.041Z,8.40
2023-02-19T15:15:37.609Z,9.90
2023-02-19T15:18:06.723Z,8.50
2023-02-19T15:20:37.236Z,8.30
2023-02-19T15:23:07.723Z,8.90
2023-02-19T15:25:38.991Z,12.30
2023-02-19T15:28:34.455Z,13.90
2023-02-19T15:31:03.405Z,12.40
2023-02-19T15:33:32.032Z,9.30
2023-02-19T15:36:04.622Z,10.90
2023-02-19T15:38:34.102Z,14.00
2023-02-19T15:41:02.959Z,11.60
2023-02-19T15:43:33.792Z,11.70
2023-02-19T15:46:11.549Z,11.10
2023-02-19T15:48:49.072Z,9.40
2023-02-19T15:51:46.304Z,13.60
2023-02-19T15:54:27.521Z,9.80
2023-02-19T15:57:01.074Z,14.40
2023-02-19T15:59:44.972Z,13.70
2023-02-19T16:02:14.491Z,9.60
2023-02-19T16:04:44.671Z,10.10
2023-02-19T16:07:27.269Z,9.60
2023-02-19T16:10:20.607Z,9.60
2023-02-19T16:13:23.374Z,10.30
2023-02-19T16:16:07.596Z,10.90
2023-02-19T16:18:36.073Z,11.10
2023-02-19T16:21:10.037Z,9.90
2023-02-19T16:23:43.329Z,11.70
2023-02-19T16:26:11.618Z,14.10
2023-02-19T16:28:42.227Z,13.70
2023-02-19T16:31:13.439Z,12.40
2023-02-19T16:33:48.652Z,12.80
2023-02-19T16:36:41.667Z,13.30
2023-02-19T16:39:11.513Z,11.70
2023-02-19T16:41:39.728Z,13.80
2023-02-19T16:44:31.180Z,10.20
2023-02-19T16:47:07.216Z,9.10
2023-02-19T16:49:37.243Z,11.30
2023-02-19T16:52:05.699Z,8.30
2023-02-19T16:54:33.793Z,10.10
2023-02-19T16:57:01.927Z,8.90
2023-02-19T16:59:30.402Z,9.90
2023-02-19T17:01:58.537Z,10.10
2023-02-19T17:04:26.698Z,10.10
2023-02-19T17:06:54.857Z,9.90
2023-02-19T17:09:23.047Z,7.60
2023-02-19T17:11:51.164Z,11.00
2023-02-19T17:14:20.848Z,10.40
2023-02-19T17:16:49.020Z,11.20
2023-02-19T17:19:19.893Z,11.80
2023-02-19T17:21:48.396Z,11.10
2023-02-19T17:24:17.475Z,9.80
2023-02-19T17:26:45.638Z,9.50
2023-02-19T17:29:15.625Z,12.70
2023-02-19T17:31:45.202Z,14.60
2023-02-19T17:34:13.495Z,11.50
2023-02-19T17:36:44.915Z,15.40
2023-02-19T17:39:17.748Z,15.10
2023-02-19T17:41:45.919Z,14.50
2023-02-19T17:44:13.992Z,16.10
2023-02-19T17:46:42.981Z,13.70
2023-02-19T17:49:13.010Z,13.20
2023-02-19T17:51:41.286Z,12.40
2023-02-19T17:54:09.603Z,14.40
2023-02-19T17:56:40.159Z,15.60
2023-02-19T17:59:08.201Z,13.70
2023-02-19T18:01:36.995Z,21.40
2023-02-19T18:04:06.153Z,40.70
2023-02-19T18:06:35.229Z,31.90
2023-02-19T18:09:03.816Z,73.70
2023-02-19T18:11:32.041Z,48.00
2023-02-19T18:14:00.631Z,60.60
2023-02-19T18:16:28.791Z,44.80
2023-02-19T18:18:59.894Z,34.20
2023-02-19T18:21:28.022Z,19.50
2023-02-19T18:23:56.255Z,21.70
2023-02-19T18:26:24.844Z,21.30
2023-02-19T18:28:52.992Z,12.80
2023-02-19T18:31:21.451Z,12.80
2023-02-19T18:33:50.117Z,12.00
2023-02-19T18:36:18.259Z,10.30
2023-02-19T18:38:46.709Z,9.60
2023-02-19T18:41:19.925Z,9.20
2023-02-19T18:43:48.836Z,10.80
2023-02-19T18:46:21.705Z,12.00
2023-02-19T18:48:49.937Z,9.20
2023-02-19T18:51:18.027Z,8.60
2023-02-19T18:53:46.232Z,8.40
2023-02-19T18:56:14.369Z,9.20
2023-02-19T18:58:42.705Z,9.10
2023-02-19T19:01:14.209Z,10.20
2023-02-19T19:03:45.335Z,9.10
2023-02-19T19:06:13.625Z,9.90
2023-02-19T19:08:43.800Z,10.80
2023-02-19T19:11:12.149Z,10.90
2023-02-19T19:13:40.468Z,11.40
2023-02-19T19:16:08.739Z,13.90
2023-02-19T19:18:38.329Z,8.00
2023-02-19T19:21:07.067Z,7.70
2023-02-19T19:23:36.653Z,7.90
2023-02-19T19:26:06.344Z,4.90
2023-02-19T19:28:34.519Z,7.40
2023-02-19T19:31:03.318Z,8.10
2023-02-19T19:33:31.480Z,5.90
2023-02-19T19:35:59.697Z,3.80
2023-02-19T19:38:27.780Z,2.60
2023-02-19T19:40:55.964Z,5.50
2023-02-19T19:43:27.878Z,5.70
2023-02-19T19:45:56.935Z,4.30
2023-02-19T19:48:27.638Z,3.90
2023-02-19T19:50:57.201Z,4.10
2023-02-19T19:53:25.743Z,7.20
2023-02-19T19:55:54.099Z,7.80
2023-02-19T19:58:24.801Z,8.90
2023-02-19T20:00:53.944Z,8.30
2023-02-19T20:03:22.598Z,6.80
2023-02-19T20:05:51.361Z,5.60
2023-02-19T20:08:20.117Z,8.60
2023-02-19T20:10:48.649Z,11.90
2023-02-19T20:13:24.547Z,6.80
2023-02-19T20:15:53.066Z,5.50
2023-02-19T20:18:21.727Z,7.60
2023-02-19T20:20:50.006Z,16.60
2023-02-19T20:23:18.338Z,8.40
2023-02-19T20:25:46.496Z,7.40
2023-02-19T20:28:14.738Z,8.50
2023-02-19T20:30:43.869Z,8.50
2023-02-19T20:33:12.132Z,5.70
2023-02-19T20:35:40.746Z,6.70
2023-02-19T20:38:08.927Z,6.80
2023-02-19T20:40:37.139Z,6.30
2023-02-19T20:43:05.349Z,7.60
2023-02-19T20:45:33.663Z,6.00
2023-02-19T20:48:04.110Z,4.10
2023-02-19T20:50:32.460Z,5.80
2023-02-19T20:53:03.223Z,5.90
2023-02-19T20:55:32.119Z,8.80
2023-02-19T20:58:00.227Z,3.40
2023-02-19T21:00:28.453Z,4.50
2023-02-19T21:02:56.579Z,5.70
2023-02-19T21:05:24.726Z,6.20
2023-02-19T21:07:52.824Z,5.60
2023-02-19T21:10:21.065Z,6.40
2023-02-19T21:12:50.742Z,5.60
2023-02-19T21:15:20.043Z,4.40
2023-02-19T21:17:48.256Z,5.00
2023-02-19T21:20:20.094Z,3.30
2023-02-19T21:22:48.190Z,6.30
2023-02-19T21:25:16.247Z,7.10
2023-02-19T21:27:44.605Z,4.00
2023-02-19T21:30:12.951Z,4.40
2023-02-19T21:32:41.220Z,4.90
2023-02-19T21:35:09.299Z,5.50
2023-02-19T21:37:41.866Z,5.00
2023-02-19T21:40:12.064Z,2.80
2023-02-19T21:42:40.268Z,7.30
2023-02-19T21:45:08.484Z,5.00
2023-02-19T21:47:36.679Z,5.00
2023-02-19T21:50:05.513Z,6.20
2023-02-19T21:52:33.717Z,6.00
2023-02-19T21:55:01.865Z,5.50
2023-02-19T21:57:30.072Z,5.60
2023-02-19T21:59:58.239Z,6.70
2023-02-19T22:02:26.348Z,10.00
2023-02-19T22:04:55.408Z,9.90
2023-02-19T22:07:24.960Z,9.20
2023-02-19T22:09:53.262Z,11.90
2023-02-19T22:12:21.552Z,13.20
2023-02-19T22:14:49.855Z,10.00
2023-02-19T22:17:17.945Z,8.90
2023-02-19T22:19:46.067Z,7.90
2023-02-19T22:22:14.593Z,6.60
2023-02-19T22:24:42.714Z,4.90
2023-02-19T22:27:10.991Z,7.90
2023-02-19T22:29:39.116Z,9.40
2023-02-19T22:32:07.543Z,7.20
2023-02-19T22:34:42.805Z,6.30
2023-02-19T22:37:10.950Z,5.10
2023-02-19T22:39:39.070Z,6.50
2023-02-19T22:42:07.367Z,7.70
2023-02-19T22:44:35.575Z,5.60
2023-02-19T22:47:03.735Z,3.70
2023-02-19T22:49:32.006Z,3.90
2023-02-19T22:52:07.482Z,5.70
2023-02-19T22:54:36.469Z,6.50
2023-02-19T22:57:05.180Z,7.30
2023-02-19T22:59:33.338Z,7.90
2023-02-19T23:02:01.444Z,8.60
2023-02-19T23:04:29.737Z,8.30
2023-02-19T23:06:57.921Z,6.30
2023-02-19T23:09:28.706Z,5.30
2023-02-19T23:12:08.972Z,5.10
2023-02-19T23:14:37.899Z,7.60
2023-02-19T23:17:06.070Z,8.30
2023-02-19T23:19:34.262Z,5.60
2023-02-19T23:22:02.720Z,7.60
2023-02-19T23:24:31.068Z,8.50
2023-02-19T23:27:00.668Z,7.40
2023-02-19T23:29:30.905Z,7.90
2023-02-19T23:32:00.536Z,6.40
2023-02-19T23:34:29.065Z,6.70
2023-02-19T23:36:59.705Z,7.40
2023-02-19T23:39:28.570Z,9.10
2023-02-19T23:41:57.957Z,7.70
2023-02-19T23:44:26.618Z,8.40
2023-02-19T23:46:55.168Z,7.40
2023-02-19T23:49:23.688Z,7.40
2023-02-19T23:51:51.943Z,7.20
2023-02-19T23:54:20.163Z,6.10
2023-02-19T23:56:48.277Z,9.20
2023-02-19T23:59:16.581Z,7.80
